Maiden, NC

9:22 PM EDT on September 02, 2014 (GMT -0400)
Blue Ridge Foothills - N1PD | Change Station
CLOSE
Current Station
Personal Weather Station
Location: Newton, NC
Elevation: 1050 ft
Nearby Weather Stations

Elev 1050 ft 35.65 °N, 81.13 °W | Updated 7 seconds ago

Overcast
Overcast
78.9 °F
Feels Like 82 °F
N
3.5
Wind Variable Wind from SW
Gusts 3.5 mph

Today
High -- | Low -- °F
--% Chance of Precip.
Yesterday
High -- | Low -- °F
Precip. -- in
6:57 AM 7:50 PM
First Quarter, 57% visible
Pressure 30.02 in
Visibility 5.0 miles
Clouds Scattered Clouds 1000 ft
Mostly Cloudy 6000 ft
Overcast 12000 ft
Heat Index 82 °F
Dew Point 74 °F
Humidity 86%
Rainfall 0.00 in
Snow Depth Not available.
UV 0 out of 12
Pollen 9.90 out of 12
Ozone Good
PM2.5 Good
Flu Activity Not available.
METAR KIPJ 030115Z AUTO 15006KT 5SM -RA SCT010 BKN060 OVC120 24/21 A3002 RMK AO2 P0004 T02430213

More Conditions Fewer Conditions

Pressure 30.02 in
Visibility 5.0 miles
Clouds Scattered Clouds 1000 ft
Mostly Cloudy 6000 ft
Overcast 12000 ft
Heat Index 82 °F
Dew Point 74 °F
Humidity 86%
Rainfall 0.00 in
Snow Depth Not available.
UV 0 out of 12
Pollen 9.90 out of 12
Ozone Good
PM2.5 Good
Flu Activity Not available.
METAR KIPJ 030115Z AUTO 15006KT 5SM -RA SCT010 BKN060 OVC120 24/21 A3002 RMK AO2 P0004 T02430213

More Conditions Fewer Conditions

10-Day Weather Forecast

Almanac

Astronomy

Sep. 02, 2014 Rise Set
Actual Time 6:57 AM EDT 7:50 PM EDT
Civil Twilight 6:31 AM EDT 8:16 PM EDT
Nautical Twilight 6:00 AM EDT 8:47 PM EDT
Astronomical Twilight 5:29 AM EDT 9:18 PM EDT
Moon 2:26 PM EDT (9/2) 12:06 AM EDT (9/2)
Length of Visible Light 13h 44m
Length of Day
12h 52m
Tomorrow will be 2m 9s shorter.
First Quarter, 57% of the Moon is Illuminated
Today
First Quarter
Sep 8
Full
Sep 15
Last Quarter
Sep 24
New
Oct 1
First Quarter

Today's Extremes

State Highs State Lows

Community

WunderPhotos

Upload Photos

1,749,826 photos uploaded!

Nearby

Air Quality

  Air Quality AQ Index Pollutant
Yesterday Good
PM2.5
Yesterday Good
OZONE
Current Good
PM2.5
Current Good
OZONE
Tuesday Good
OZONE
Tuesday Good
PM2.5
Wednesday Good
PM2.5
Wednesday Good
OZONE
Thursday Good
PM2.5
Thursday Good
OZONE
Friday Good
PM2.5
Friday Good
OZONE

Snow Depth

Station Depth Elevation
No new snow has been reported.

Earthquake Activity

City Distance Mag. Time & Date
No recent earthquake activity has been reported nearby.
Minimum magnitude displayed is 2.5.

Coastal Water Temperatures

Place Temperature
No Stations Reporting

Nearby Weather Stations